createdAt,value
2018-09-25T00:00:54.902Z,67.51
2018-09-25T00:03:28.893Z,67.37
2018-09-25T00:06:02.945Z,67.79
2018-09-25T00:08:36.935Z,67.65
2018-09-25T00:11:10.991Z,67.45
2018-09-25T00:13:44.931Z,66.89
2018-09-25T00:16:19.204Z,66.72
2018-09-25T00:18:53.201Z,67.19
2018-09-25T00:21:27.185Z,67.00
2018-09-25T00:24:01.093Z,67.23
2018-09-25T00:26:35.039Z,67.15
2018-09-25T00:29:09.217Z,66.86
2018-09-25T00:31:43.168Z,66.72
2018-09-25T00:34:17.029Z,66.68
2018-09-25T00:36:51.493Z,67.09
2018-09-25T00:39:25.382Z,66.80
2018-09-25T00:42:06.068Z,66.83
2018-09-25T00:44:40.028Z,66.75
2018-09-25T00:47:14.024Z,66.14
2018-09-25T00:49:47.893Z,66.01
2018-09-25T00:52:21.832Z,66.14
2018-09-25T00:54:55.827Z,66.02
2018-09-25T00:57:29.837Z,66.28
2018-09-25T01:00:05.119Z,65.99
2018-09-25T01:02:39.344Z,66.40
2018-09-25T01:05:13.062Z,66.47
2018-09-25T01:07:46.905Z,66.49
2018-09-25T01:10:20.878Z,66.87
2018-09-25T01:12:54.897Z,66.83
2018-09-25T01:15:28.782Z,66.96
2018-09-25T01:18:02.632Z,67.16
2018-09-25T01:20:36.827Z,67.38
2018-09-25T01:23:10.948Z,67.65
2018-09-25T01:25:45.041Z,67.02
2018-09-25T01:28:19.012Z,67.61
2018-09-25T01:30:52.992Z,67.62
2018-09-25T01:33:26.941Z,67.87
2018-09-25T01:36:00.898Z,68.09
2018-09-25T01:38:34.941Z,68.29
2018-09-25T01:41:09.029Z,69.03
2018-09-25T01:43:42.975Z,69.02
2018-09-25T01:46:16.952Z,68.76
2018-09-25T01:48:50.904Z,69.30
2018-09-25T01:51:24.897Z,69.62
2018-09-25T01:53:58.844Z,69.50
2018-09-25T01:56:32.759Z,69.54
2018-09-25T01:59:06.681Z,69.37
2018-09-25T02:01:40.697Z,69.50
2018-09-25T02:04:14.748Z,69.33
2018-09-25T02:06:48.878Z,69.25
2018-09-25T02:09:22.903Z,69.23
2018-09-25T02:11:56.880Z,68.89
2018-09-25T02:14:30.800Z,69.29
2018-09-25T02:17:04.711Z,69.04
2018-09-25T02:19:38.757Z,68.76
2018-09-25T02:22:12.715Z,68.38
2018-09-25T02:24:46.631Z,68.46
2018-09-25T02:27:20.600Z,68.75
2018-09-25T02:29:54.543Z,68.67
2018-09-25T02:32:28.504Z,68.47
2018-09-25T02:35:02.498Z,68.42
2018-09-25T02:37:36.512Z,68.26
2018-09-25T02:40:10.458Z,68.24
2018-09-25T02:42:44.424Z,67.97
2018-09-25T02:45:18.608Z,68.31
2018-09-25T02:47:52.548Z,68.44
2018-09-25T02:50:26.514Z,68.59
2018-09-25T02:53:00.455Z,67.98
2018-09-25T02:55:34.442Z,68.82
2018-09-25T02:58:08.422Z,68.90
2018-09-25T03:00:42.388Z,68.79
2018-09-25T03:03:16.431Z,68.89
2018-09-25T03:05:50.355Z,68.69
2018-09-25T03:08:24.361Z,68.57
2018-09-25T03:10:58.285Z,68.63
2018-09-25T03:13:32.211Z,68.69
2018-09-25T03:16:06.152Z,68.67
2018-09-25T03:18:40.065Z,68.02
2018-09-25T03:21:14.188Z,68.07
2018-09-25T03:23:48.215Z,67.93
2018-09-25T03:26:22.407Z,67.72
2018-09-25T03:28:56.457Z,67.29
2018-09-25T03:31:30.495Z,67.30
2018-09-25T03:34:04.606Z,67.20
2018-09-25T03:36:38.538Z,66.84
2018-09-25T03:39:13.932Z,66.63
2018-09-25T03:41:47.970Z,67.20
2018-09-25T03:44:22.000Z,67.30
2018-09-25T03:46:55.978Z,66.92
2018-09-25T03:49:30.037Z,67.33
2018-09-25T03:52:03.982Z,67.84
2018-09-25T03:54:37.972Z,66.85
2018-09-25T03:57:12.389Z,67.43
2018-09-25T03:59:46.393Z,67.13
2018-09-25T04:02:20.187Z,67.17
2018-09-25T04:04:54.039Z,67.26
2018-09-25T04:07:28.016Z,66.88
2018-09-25T04:10:02.056Z,66.28
2018-09-25T04:12:36.002Z,66.19
2018-09-25T04:15:09.949Z,65.43
2018-09-25T04:17:43.898Z,65.93
2018-09-25T04:20:17.823Z,65.48
2018-09-25T04:22:51.779Z,65.65
2018-09-25T04:25:26.000Z,65.76
2018-09-25T04:27:59.900Z,64.76
2018-09-25T04:30:33.882Z,64.77
2018-09-25T04:33:07.860Z,64.66
2018-09-25T04:35:41.823Z,64.28
2018-09-25T04:38:15.755Z,63.87
2018-09-25T04:40:49.845Z,63.49
2018-09-25T04:43:23.772Z,63.56
2018-09-25T04:45:57.817Z,63.39
2018-09-25T04:48:31.907Z,62.28
2018-09-25T04:51:05.871Z,62.14
2018-09-25T04:53:39.785Z,62.76
2018-09-25T04:56:13.794Z,62.62
2018-09-25T04:58:47.731Z,61.77
2018-09-25T05:01:21.683Z,62.06
2018-09-25T05:03:55.554Z,61.74
2018-09-25T05:06:29.537Z,62.54
2018-09-25T05:09:03.502Z,62.54
2018-09-25T05:11:37.469Z,62.47
2018-09-25T05:14:11.413Z,62.43
2018-09-25T05:16:45.378Z,62.61
2018-09-25T05:19:19.268Z,62.90
2018-09-25T05:21:53.346Z,62.41
2018-09-25T05:24:27.296Z,62.68
2018-09-25T05:27:01.193Z,62.77
2018-09-25T05:29:35.450Z,63.13
2018-09-25T05:32:09.760Z,63.30
2018-09-25T05:34:43.864Z,62.89
2018-09-25T05:37:17.813Z,63.02
2018-09-25T05:39:51.886Z,62.90
2018-09-25T05:42:25.760Z,63.07
2018-09-25T05:44:59.764Z,62.87
2018-09-25T05:47:33.764Z,62.98
2018-09-25T05:50:07.731Z,62.62
2018-09-25T05:52:41.785Z,62.60
2018-09-25T05:55:15.636Z,62.05
2018-09-25T05:57:49.586Z,62.16
2018-09-25T06:00:23.559Z,62.27
2018-09-25T06:02:57.540Z,62.49
2018-09-25T06:05:31.531Z,63.01
2018-09-25T06:08:05.633Z,61.23
2018-09-25T06:10:39.767Z,61.40
2018-09-25T06:13:13.776Z,61.92
2018-09-25T06:15:48.249Z,60.77
2018-09-25T06:18:22.340Z,61.06
2018-09-25T06:20:56.295Z,60.62
2018-09-25T06:23:30.214Z,60.96
2018-09-25T06:26:04.185Z,60.53
2018-09-25T06:28:38.153Z,61.11
2018-09-25T06:31:12.165Z,60.85
2018-09-25T06:33:46.170Z,60.27
2018-09-25T06:36:20.179Z,59.83
2018-09-25T06:38:54.084Z,59.74
2018-09-25T06:41:28.086Z,59.86
2018-09-25T06:44:02.205Z,58.52
2018-09-25T06:46:36.163Z,58.66
2018-09-25T06:49:10.053Z,58.68
2018-09-25T06:51:44.004Z,58.79
2018-09-25T06:54:17.960Z,58.18
2018-09-25T06:56:51.881Z,57.49
2018-09-25T06:59:25.779Z,57.10
2018-09-25T07:01:59.794Z,56.59
2018-09-25T07:04:42.180Z,56.16
2018-09-25T07:07:16.164Z,55.93
2018-09-25T07:09:50.314Z,55.52
2018-09-25T07:12:24.353Z,56.35
2018-09-25T07:14:58.308Z,55.96
2018-09-25T07:17:32.313Z,56.90
2018-09-25T07:20:06.528Z,56.60
2018-09-25T07:22:40.643Z,55.59
2018-09-25T07:25:14.566Z,55.53
2018-09-25T07:27:48.448Z,55.98
2018-09-25T07:30:22.463Z,56.15
2018-09-25T07:32:56.561Z,55.82
2018-09-25T07:35:30.621Z,55.81
2018-09-25T07:38:04.664Z,56.37
2018-09-25T07:40:38.680Z,55.34
2018-09-25T07:43:12.572Z,55.44
2018-09-25T07:45:46.544Z,55.39
2018-09-25T07:48:20.578Z,55.01
2018-09-25T07:50:54.952Z,53.94
2018-09-25T07:53:29.220Z,54.65
2018-09-25T07:56:03.431Z,54.25
2018-09-25T07:58:37.329Z,53.19
2018-09-25T08:01:11.676Z,53.39
2018-09-25T08:03:45.732Z,53.25
2018-09-25T08:06:19.760Z,52.54
2018-09-25T08:08:53.785Z,52.44
2018-09-25T08:11:28.020Z,51.01
2018-09-25T08:14:02.086Z,50.81
2018-09-25T08:16:36.095Z,49.49
2018-09-25T08:19:10.292Z,49.66
2018-09-25T08:21:44.179Z,49.94
2018-09-25T08:24:18.130Z,50.45
2018-09-25T08:26:52.088Z,49.95
2018-09-25T08:29:26.113Z,49.33
2018-09-25T08:32:00.028Z,48.81
2018-09-25T08:34:33.952Z,48.30
2018-09-25T08:37:07.988Z,48.39
2018-09-25T08:39:42.042Z,48.07
2018-09-25T08:42:16.224Z,47.83
2018-09-25T08:44:50.159Z,46.79
2018-09-25T08:47:24.126Z,48.19
2018-09-25T08:49:58.122Z,47.33
2018-09-25T08:52:32.115Z,46.03
2018-09-25T08:55:06.127Z,44.17
2018-09-25T08:57:40.261Z,44.25
2018-09-25T09:00:16.984Z,44.56
2018-09-25T09:02:51.049Z,44.62
2018-09-25T09:05:25.086Z,43.25
2018-09-25T09:07:59.010Z,41.82
2018-09-25T09:10:32.967Z,42.18
2018-09-25T09:13:07.728Z,41.80
2018-09-25T09:15:41.777Z,40.90
2018-09-25T09:18:15.993Z,41.46
2018-09-25T09:20:49.921Z,40.92
2018-09-25T09:23:23.820Z,40.84
2018-09-25T09:25:57.776Z,40.69
2018-09-25T09:28:31.787Z,39.77
2018-09-25T09:31:05.727Z,40.38
2018-09-25T09:33:39.652Z,40.98
2018-09-25T09:36:13.695Z,40.26
2018-09-25T09:38:47.679Z,40.72
2018-09-25T09:41:21.833Z,38.76
2018-09-25T09:43:55.925Z,38.47
2018-09-25T09:46:29.914Z,38.69
2018-09-25T09:49:03.830Z,37.49
2018-09-25T09:51:37.808Z,38.54
2018-09-25T09:54:11.789Z,39.00
2018-09-25T09:56:45.844Z,37.98
2018-09-25T09:59:19.898Z,37.35
2018-09-25T10:01:53.874Z,36.58
2018-09-25T10:04:27.857Z,36.91
2018-09-25T10:07:01.749Z,36.76
2018-09-25T10:09:36.018Z,36.49
2018-09-25T10:12:10.006Z,36.65
2018-09-25T10:14:44.066Z,35.19
2018-09-25T10:17:18.026Z,34.99
2018-09-25T10:19:52.009Z,36.14
2018-09-25T10:22:26.011Z,35.82
2018-09-25T10:24:59.991Z,35.42
2018-09-25T10:27:33.875Z,36.62
2018-09-25T10:30:08.078Z,36.23
2018-09-25T10:32:41.955Z,36.60
2018-09-25T10:35:16.097Z,36.27
2018-09-25T10:37:50.066Z,36.74
2018-09-25T10:40:24.065Z,36.29
2018-09-25T10:42:58.080Z,36.54
2018-09-25T10:45:32.037Z,35.73
2018-09-25T10:48:06.030Z,35.99
2018-09-25T10:50:40.029Z,35.38
2018-09-25T10:53:14.047Z,35.61
2018-09-25T10:55:48.315Z,35.16
2018-09-25T10:58:22.273Z,35.46
2018-09-25T11:00:56.273Z,35.69
2018-09-25T11:03:30.339Z,35.72
2018-09-25T11:06:04.521Z,35.19
2018-09-25T11:08:38.634Z,35.96
2018-09-25T11:11:13.317Z,35.52
2018-09-25T11:13:47.291Z,35.34
2018-09-25T11:16:21.472Z,35.68
2018-09-25T11:18:55.723Z,36.26
2018-09-25T11:21:29.670Z,36.31
2018-09-25T11:24:03.674Z,35.39
2018-09-25T11:26:37.656Z,35.22
2018-09-25T11:29:11.701Z,36.25
2018-09-25T11:31:45.907Z,35.52
2018-09-25T11:34:19.818Z,35.75
2018-09-25T11:36:53.813Z,35.21
2018-09-25T11:39:27.724Z,35.65
2018-09-25T11:42:01.604Z,35.18
2018-09-25T11:44:35.592Z,35.53
2018-09-25T11:47:09.585Z,35.22
2018-09-25T11:49:43.822Z,35.51
2018-09-25T11:52:17.840Z,34.63
2018-09-25T11:54:51.924Z,34.74
2018-09-25T11:57:25.981Z,34.08
2018-09-25T12:00:00.065Z,34.47
2018-09-25T12:02:34.306Z,33.41
2018-09-25T12:05:08.307Z,34.08
2018-09-25T12:07:42.496Z,33.95
2018-09-25T12:10:16.460Z,34.49
2018-09-25T12:12:50.567Z,34.16
2018-09-25T12:15:24.708Z,33.93
2018-09-25T12:17:58.688Z,34.50
2018-09-25T12:20:32.655Z,34.38
2018-09-25T12:23:06.605Z,34.61
2018-09-25T12:25:40.605Z,34.33
2018-09-25T12:28:14.858Z,33.61
2018-09-25T12:30:48.986Z,33.75
2018-09-25T12:33:23.198Z,33.90
2018-09-25T12:35:57.108Z,34.35
2018-09-25T12:38:31.309Z,34.47
2018-09-25T12:41:05.304Z,34.21
2018-09-25T12:43:39.512Z,34.57
2018-09-25T12:46:13.602Z,34.21
2018-09-25T12:48:47.656Z,33.83
2018-09-25T12:51:21.565Z,32.83
2018-09-25T12:53:55.610Z,33.10
2018-09-25T12:56:29.572Z,32.66
2018-09-25T12:59:03.660Z,30.46
2018-09-25T13:01:37.689Z,31.12
2018-09-25T13:04:12.221Z,30.78
2018-09-25T13:06:46.469Z,31.27
2018-09-25T13:09:20.535Z,31.70
2018-09-25T13:11:54.597Z,30.70
2018-09-25T13:14:28.652Z,29.82
2018-09-25T13:17:02.612Z,30.40
2018-09-25T13:19:36.574Z,30.41
2018-09-25T13:22:10.555Z,30.96
2018-09-25T13:24:44.498Z,30.24
2018-09-25T13:27:18.533Z,31.08
2018-09-25T13:29:52.563Z,29.74
2018-09-25T13:32:26.743Z,29.64
2018-09-25T13:35:00.727Z,29.58
2018-09-25T13:37:34.676Z,29.69
2018-09-25T13:40:08.716Z,30.07
2018-09-25T13:42:42.792Z,29.88
2018-09-25T13:45:17.041Z,30.27
2018-09-25T13:47:50.907Z,30.89
2018-09-25T13:50:24.963Z,31.83
2018-09-25T13:52:59.024Z,31.52
2018-09-25T13:55:32.939Z,32.38
2018-09-25T13:58:09.237Z,32.29
2018-09-25T14:00:43.254Z,33.38
2018-09-25T14:03:17.283Z,33.43
2018-09-25T14:05:51.379Z,33.51
2018-09-25T14:08:25.352Z,33.90
2018-09-25T14:10:59.396Z,34.31
2018-09-25T14:13:33.484Z,34.47
2018-09-25T14:16:08.950Z,34.89
2018-09-25T14:18:43.153Z,35.20
2018-09-25T14:21:17.282Z,34.85
2018-09-25T14:23:51.452Z,32.54
2018-09-25T14:26:25.475Z,32.80
2018-09-25T14:28:59.504Z,32.27
2018-09-25T14:31:33.515Z,32.70
2018-09-25T14:34:07.602Z,32.46
2018-09-25T14:36:41.751Z,32.30
2018-09-25T14:39:15.732Z,32.27
2018-09-25T14:41:49.763Z,32.92
2018-09-25T14:44:23.661Z,32.04
2018-09-25T14:46:57.692Z,33.02
2018-09-25T14:49:31.719Z,32.62
2018-09-25T14:52:05.824Z,32.96
2018-09-25T14:54:39.837Z,33.16
2018-09-25T14:57:14.054Z,32.76
2018-09-25T14:59:48.282Z,32.14
2018-09-25T15:02:22.398Z,32.60
2018-09-25T15:04:56.509Z,33.12
2018-09-25T15:07:30.791Z,33.58
2018-09-25T15:10:04.796Z,33.96
2018-09-25T15:12:38.732Z,33.73
2018-09-25T15:15:12.709Z,34.10
2018-09-25T15:17:46.741Z,33.94
2018-09-25T15:20:21.003Z,34.23
2018-09-25T15:22:55.078Z,34.64
2018-09-25T15:25:28.986Z,33.93
2018-09-25T15:28:04.646Z,34.49
2018-09-25T15:30:38.857Z,34.20
2018-09-25T15:33:12.783Z,34.44
2018-09-25T15:35:47.115Z,33.79
2018-09-25T15:38:21.345Z,34.41
2018-09-25T15:40:55.385Z,33.61
2018-09-25T15:43:29.563Z,34.11
2018-09-25T15:46:03.677Z,34.79
2018-09-25T15:48:37.788Z,34.60
2018-09-25T15:51:11.958Z,35.45
2018-09-25T15:53:45.970Z,35.04
2018-09-25T15:56:19.969Z,34.88
2018-09-25T15:58:54.206Z,36.09
2018-09-25T16:01:29.303Z,35.68
2018-09-25T16:04:03.482Z,35.68
2018-09-25T16:06:37.595Z,35.69
2018-09-25T16:09:14.553Z,35.61
2018-09-25T16:11:48.556Z,35.29
2018-09-25T16:14:22.574Z,35.48
2018-09-25T16:16:56.495Z,35.10
2018-09-25T16:19:30.765Z,35.44
2018-09-25T16:22:05.049Z,36.18
2018-09-25T16:24:39.255Z,36.20
2018-09-25T16:27:13.280Z,36.08
2018-09-25T16:29:48.434Z,36.74
2018-09-25T16:32:22.597Z,36.06
2018-09-25T16:34:56.662Z,36.77
2018-09-25T16:37:30.669Z,36.54
2018-09-25T16:40:04.752Z,36.99
2018-09-25T16:42:39.028Z,36.71
2018-09-25T16:45:13.311Z,37.56
2018-09-25T16:47:47.354Z,36.90
2018-09-25T16:50:21.269Z,37.40
2018-09-25T16:52:55.180Z,37.01
2018-09-25T16:55:29.146Z,37.88
2018-09-25T16:58:03.153Z,37.62
2018-09-25T17:00:37.094Z,37.61
2018-09-25T17:03:11.269Z,37.81
2018-09-25T17:05:45.230Z,38.35
2018-09-25T17:08:19.708Z,38.67
2018-09-25T17:10:53.693Z,38.64
2018-09-25T17:13:27.779Z,38.85
2018-09-25T17:16:01.725Z,38.83
2018-09-25T17:18:35.747Z,38.65
2018-09-25T17:21:09.918Z,38.81
2018-09-25T17:23:43.981Z,39.17
2018-09-25T17:26:17.974Z,39.29
2018-09-25T17:28:51.915Z,39.61
2018-09-25T17:31:25.896Z,39.23
2018-09-25T17:34:00.024Z,39.45
2018-09-25T17:36:33.977Z,38.92
2018-09-25T17:39:07.986Z,39.87
2018-09-25T17:41:42.102Z,39.00
2018-09-25T17:44:16.058Z,39.27
2018-09-25T17:46:50.049Z,39.22
2018-09-25T17:49:24.134Z,39.05
2018-09-25T17:51:58.252Z,39.96
2018-09-25T17:54:32.200Z,39.81
2018-09-25T17:57:06.487Z,39.86
2018-09-25T17:59:40.675Z,39.60
2018-09-25T18:02:14.677Z,39.22
2018-09-25T18:04:48.605Z,39.80
2018-09-25T18:07:22.518Z,39.00
2018-09-25T18:09:56.589Z,39.57
2018-09-25T18:12:30.512Z,38.83
2018-09-25T18:15:04.663Z,39.25
2018-09-25T18:17:38.712Z,39.20
2018-09-25T18:20:12.686Z,38.75
2018-09-25T18:22:46.713Z,38.89
2018-09-25T18:25:20.752Z,39.46
2018-09-25T18:27:54.762Z,39.28
2018-09-25T18:30:28.842Z,39.24
2018-09-25T18:33:02.873Z,38.89
2018-09-25T18:35:37.071Z,38.56
2018-09-25T18:38:11.263Z,39.06
2018-09-25T18:40:46.112Z,38.69
2018-09-25T18:43:20.092Z,38.38
2018-09-25T18:45:54.068Z,37.94
2018-09-25T18:48:28.176Z,37.86
2018-09-25T18:51:02.157Z,38.25
2018-09-25T18:53:36.168Z,37.89
2018-09-25T18:56:10.183Z,38.16
2018-09-25T18:58:44.148Z,37.92
2018-09-25T19:01:18.248Z,38.06
2018-09-25T19:03:52.316Z,38.33
2018-09-25T19:06:26.325Z,37.98
2018-09-25T19:09:00.275Z,38.35
2018-09-25T19:11:34.283Z,38.23
2018-09-25T19:14:08.257Z,38.68
2018-09-25T19:16:42.520Z,38.47
2018-09-25T19:19:16.633Z,38.38
2018-09-25T19:21:50.697Z,38.77
2018-09-25T19:24:24.784Z,39.26
2018-09-25T19:26:58.802Z,39.35
2018-09-25T19:29:32.953Z,39.40
2018-09-25T19:32:06.961Z,38.60
2018-09-25T19:34:41.025Z,39.31
2018-09-25T19:37:15.061Z,39.01
2018-09-25T19:39:48.960Z,39.03
2018-09-25T19:42:22.911Z,39.33
2018-09-25T19:44:56.816Z,39.19
2018-09-25T19:47:30.886Z,39.16
2018-09-25T19:50:04.855Z,39.49
2018-09-25T19:52:38.830Z,39.48
2018-09-25T19:55:12.830Z,39.20
2018-09-25T19:57:46.889Z,39.69
2018-09-25T20:00:26.684Z,39.67
2018-09-25T20:03:00.601Z,40.26
2018-09-25T20:05:34.582Z,39.87
2018-09-25T20:08:08.684Z,40.61
2018-09-25T20:10:42.577Z,40.69
2018-09-25T20:13:16.589Z,40.25
2018-09-25T20:15:50.860Z,40.46
2018-09-25T20:18:24.904Z,40.51
2018-09-25T20:20:58.926Z,40.46
2018-09-25T20:23:32.940Z,40.82
2018-09-25T20:26:07.204Z,40.63
2018-09-25T20:28:41.197Z,41.59
2018-09-25T20:31:15.157Z,41.70
2018-09-25T20:33:49.000Z,41.83
2018-09-25T20:36:23.074Z,41.47
2018-09-25T20:38:57.081Z,41.92
2018-09-25T20:41:30.960Z,41.97
2018-09-25T20:44:05.045Z,42.16
2018-09-25T20:46:39.259Z,41.78
2018-09-25T20:49:13.311Z,42.30
2018-09-25T20:51:47.461Z,42.08
2018-09-25T20:54:21.449Z,42.29
2018-09-25T20:56:55.613Z,42.73
2018-09-25T20:59:29.516Z,42.59
2018-09-25T21:02:03.523Z,42.15
2018-09-25T21:04:37.515Z,42.52
2018-09-25T21:07:11.786Z,42.92
2018-09-25T21:09:46.033Z,43.30
2018-09-25T21:12:20.092Z,43.19
2018-09-25T21:14:54.070Z,43.56
2018-09-25T21:17:28.071Z,43.30
2018-09-25T21:20:02.020Z,43.11
2018-09-25T21:22:35.920Z,43.24
2018-09-25T21:25:09.951Z,45.20
2018-09-25T21:27:43.938Z,43.34
2018-09-25T21:30:17.968Z,43.48
2018-09-25T21:32:52.031Z,43.92
2018-09-25T21:35:26.067Z,43.58
2018-09-25T21:38:00.074Z,43.69
2018-09-25T21:40:34.043Z,44.47
2018-09-25T21:43:08.104Z,44.61
2018-09-25T21:45:42.174Z,44.29
2018-09-25T21:48:16.082Z,45.08
2018-09-25T21:50:50.088Z,45.62
2018-09-25T21:53:24.267Z,45.14
2018-09-25T21:55:58.814Z,45.27
2018-09-25T21:58:32.726Z,45.30
2018-09-25T22:01:06.799Z,45.86
2018-09-25T22:03:40.989Z,45.65
2018-09-25T22:06:14.953Z,46.52
2018-09-25T22:08:48.928Z,46.68
2018-09-25T22:11:22.916Z,47.26
2018-09-25T22:13:56.829Z,46.80
2018-09-25T22:16:30.865Z,46.78
2018-09-25T22:19:04.901Z,47.12
2018-09-25T22:21:38.832Z,46.19
2018-09-25T22:24:12.852Z,46.75
2018-09-25T22:26:46.879Z,46.97
2018-09-25T22:29:21.003Z,47.40
2018-09-25T22:31:55.040Z,47.57
2018-09-25T22:34:29.071Z,47.30
2018-09-25T22:37:03.188Z,47.23
2018-09-25T22:39:37.155Z,47.07
2018-09-25T22:42:11.079Z,46.83
2018-09-25T22:44:45.244Z,46.80
2018-09-25T22:47:19.426Z,47.58
2018-09-25T22:49:53.545Z,48.36
2018-09-25T22:52:27.589Z,48.61
2018-09-25T22:55:01.626Z,48.72
2018-09-25T22:57:35.601Z,48.87
2018-09-25T23:00:10.944Z,48.59
2018-09-25T23:02:44.884Z,48.50
2018-09-25T23:05:19.041Z,48.86
2018-09-25T23:07:53.040Z,49.08
2018-09-25T23:10:27.156Z,49.57
2018-09-25T23:13:01.123Z,49.67
2018-09-25T23:15:35.151Z,50.54
2018-09-25T23:18:09.063Z,50.77
2018-09-25T23:20:43.023Z,51.20
2018-09-25T23:23:17.041Z,51.42
2018-09-25T23:25:51.058Z,52.02
2018-09-25T23:28:25.093Z,51.49
2018-09-25T23:30:59.252Z,51.99
2018-09-25T23:33:33.205Z,51.14
2018-09-25T23:36:07.176Z,49.95
2018-09-25T23:38:41.057Z,50.39
2018-09-25T23:41:16.823Z,50.99
2018-09-25T23:43:50.896Z,51.44
2018-09-25T23:47:23.673Z,50.74
2018-09-25T23:52:00.117Z,51.08
2018-09-25T23:55:31.747Z,51.49
2018-09-25T23:58:05.753Z,51.83
